Time;durP1;ratioP1;P1;durP2;ratioP2;P2;SDS_P1;SDS_P2;PMS_P1;PMS_P2;Temp;Humidity;BMP_temperature;BMP_pressure;BME280_temperature;BME280_humidity;BME280_pressure;Samples;Min_cycle;Max_cycle;Signal;HPM_P1;HPM_P2
2022/04/10 00:02:19;;;;;;;8.07;3.60;;;;;;;8.45;50.44;101808.13;5121987;28;20055;-66
2022/04/10 00:04:46;;;;;;;5.30;2.97;;;;;;;8.45;50.94;101802.78;5125330;28;20051;-65
2022/04/10 00:07:14;;;;;;;12.80;4.72;;;;;;;8.45;50.78;101807.31;5119519;28;20056;-65
2022/04/10 00:09:42;;;;;;;5.82;3.05;;;;;;;8.43;50.60;101807.47;5117984;27;20381;-65
2022/04/10 00:12:10;;;;;;;8.45;3.28;;;;;;;8.43;51.18;101804.81;5131700;27;20128;-65
2022/04/10 00:14:38;;;;;;;11.18;3.85;;;;;;;8.41;51.11;101800.66;5110538;28;20082;-65
2022/04/10 00:17:05;;;;;;;7.78;3.33;;;;;;;8.41;50.70;101806.00;5112386;28;20075;-64
2022/04/10 00:19:35;;;;;;;12.48;4.00;;;;;;;8.40;50.88;101805.16;5126099;27;20078;-65
2022/04/10 00:22:02;;;;;;;8.98;3.33;;;;;;;8.39;51.41;101797.31;5109953;28;20500;-64
2022/04/10 00:24:30;;;;;;;8.73;3.67;;;;;;;8.38;50.57;101801.00;5123413;28;20083;-65
2022/04/10 00:26:58;;;;;;;8.18;3.50;;;;;;;8.26;51.06;101775.66;5123397;28;20358;-65
2022/04/10 00:29:26;;;;;;;12.63;4.78;;;;;;;8.37;50.72;101797.50;5115825;28;20091;-65
2022/04/10 00:31:54;;;;;;;9.68;4.07;;;;;;;8.37;51.06;101794.00;5115705;28;20155;-65
2022/04/10 00:34:22;;;;;;;8.82;3.80;;;;;;;8.36;51.28;101793.16;5112478;28;20075;-65
2022/04/10 00:36:51;;;;;;;10.00;3.40;;;;;;;8.34;50.59;101797.88;5124631;28;20102;-66
2022/04/10 00:39:19;;;;;;;7.88;3.53;;;;;;;8.34;51.47;101795.19;5111804;28;20071;-66
2022/04/10 00:41:46;;;;;;;8.00;4.60;;;;;;;8.35;50.77;101791.50;5121733;27;20469;-64
2022/04/10 00:44:14;;;;;;;6.22;3.35;;;;;;;8.34;51.44;101795.19;5116003;28;20055;-64
2022/04/10 00:46:43;;;;;;;8.95;3.78;;;;;;;8.33;50.86;101792.69;5109334;28;20055;-64
2022/04/10 00:49:10;;;;;;;8.52;3.42;;;;;;;8.32;50.76;101794.50;5106886;28;20043;-65
2022/04/10 00:51:41;;;;;;;12.02;3.78;;;;;;;8.33;50.99;101790.03;5123519;27;20426;-65
2022/04/10 00:54:12;;;;;;;6.90;3.47;;;;;;;8.27;50.92;101780.84;5112133;28;20050;-66
2022/04/10 00:56:40;;;;;;;8.90;3.42;;;;;;;8.33;51.27;101790.03;5112322;28;20093;-65
2022/04/10 00:59:09;;;;;;;9.95;4.28;;;;;;;8.30;51.47;101787.69;5110038;28;20083;-63
2022/04/10 01:01:38;;;;;;;11.35;3.65;;;;;;;8.29;50.59;101783.34;5114398;28;20068;-65
2022/04/10 01:04:26;;;;;;;6.90;3.58;;;;;;;8.29;51.28;101783.34;5113963;27;20058;-65
2022/04/10 01:06:54;;;;;;;8.48;3.83;;;;;;;8.26;51.68;101781.84;5119378;28;20050;-65
2022/04/10 01:09:24;;;;;;;10.52;4.10;;;;;;;8.25;51.06;101787.41;5117386;28;20112;-65
2022/04/10 01:11:53;;;;;;;8.02;3.38;;;;;;;8.24;51.18;101791.09;5113658;28;20079;-65
2022/04/10 01:14:21;;;;;;;8.68;3.85;;;;;;;8.10;51.43;101769.47;5117906;27;20500;-65
2022/04/10 01:16:49;;;;;;;7.85;3.13;;;;;;;8.22;51.67;101790.44;5119312;28;20075;-65
2022/04/10 01:19:18;;;;;;;7.70;3.80;;;;;;;8.22;51.04;101785.91;5120882;27;20581;-64
2022/04/10 01:21:48;;;;;;;10.05;3.58;;;;;;;8.21;51.56;101784.25;5123545;28;20082;-65
2022/04/10 01:24:17;;;;;;;10.07;4.75;;;;;;;8.21;50.97;101784.25;5119625;28;20148;-64
2022/04/10 01:26:45;;;;;;;8.25;3.53;;;;;;;8.21;51.38;101786.09;5119660;28;20123;-65
2022/04/10 01:29:14;;;;;;;7.50;3.72;;;;;;;8.19;50.83;101785.44;5115666;28;20063;-65
2022/04/10 01:31:46;;;;;;;7.72;3.53;;;;;;;8.06;51.16;101760.13;5103472;28;20075;-65
2022/04/10 01:34:15;;;;;;;9.25;3.47;;;;;;;8.18;51.51;101789.97;5116150;28;20108;-65
2022/04/10 01:36:44;;;;;;;8.00;3.67;;;;;;;8.15;51.79;101784.97;5122972;28;20498;-65
2022/04/10 01:39:15;;;;;;;8.75;4.00;;;;;;;8.16;51.44;101794.69;5115046;28;20046;-65
2022/04/10 01:41:46;;;;;;;7.53;3.53;;;;;;;8.13;51.06;101787.00;5115650;28;20040;-66
2022/04/10 01:44:14;;;;;;;7.50;3.92;;;;;;;8.13;51.52;101789.69;5119619;28;20510;-65
2022/04/10 01:46:42;;;;;;;8.77;3.70;;;;;;;8.13;50.88;101787.00;5120433;28;20048;-65
2022/04/10 01:49:10;;;;;;;8.20;3.58;;;;;;;8.12;51.59;101790.72;5114136;28;20174;-66
2022/04/10 01:51:37;;;;;;;9.38;4.47;;;;;;;8.11;51.78;101783.69;5118733;28;20071;-66
2022/04/10 01:54:05;;;;;;;7.00;3.60;;;;;;;8.12;51.37;101801.41;5112436;28;20112;-66
2022/04/10 01:56:33;;;;;;;12.27;4.40;;;;;;;8.11;51.09;101794.41;5105983;28;20047;-65
2022/04/10 01:59:02;;;;;;;10.95;4.10;;;;;;;8.10;51.51;101803.44;5114530;28;20135;-65
2022/04/10 02:01:30;;;;;;;11.90;4.22;;;;;;;8.08;51.72;101800.94;5117621;28;20097;-65
2022/04/10 02:03:58;;;;;;;9.50;4.05;;;;;;;8.07;51.80;101801.13;5117472;28;20131;-66
2022/04/10 02:06:25;;;;;;;9.38;4.00;;;;;;;8.07;52.09;101801.13;5120108;28;20075;-66
2022/04/10 02:08:53;;;;;;;8.77;4.15;;;;;;;8.06;52.15;101805.66;5116481;28;20071;-66
2022/04/10 02:11:22;;;;;;;8.23;3.42;;;;;;;8.06;51.76;101805.66;5111135;28;20077;-66
2022/04/10 02:13:50;;;;;;;11.10;3.85;;;;;;;8.06;51.46;101807.50;5123025;28;20047;-66
2022/04/10 02:16:20;;;;;;;8.48;4.18;;;;;;;8.03;51.35;101797.97;5123602;28;20044;-65
2022/04/10 02:18:48;;;;;;;9.90;3.92;;;;;;;8.05;52.05;101803.16;5116934;28;20076;-65
2022/04/10 02:21:16;;;;;;;8.57;3.65;;;;;;;8.04;51.73;101802.31;5122538;28;20043;-65
2022/04/10 02:23:45;;;;;;;9.43;4.95;;;;;;;8.03;51.78;101797.97;5114751;28;20051;-65
2022/04/10 02:26:13;;;;;;;8.50;3.42;;;;;;;8.03;52.09;101797.16;5123574;28;20044;-65
2022/04/10 02:28:41;;;;;;;9.43;3.45;;;;;;;8.02;52.04;101801.69;5125512;28;20062;-64
2022/04/10 02:31:09;;;;;;;11.18;4.35;;;;;;;8.03;51.78;101800.66;5126588;28;20094;-65
2022/04/10 02:33:39;;;;;;;7.57;4.43;;;;;;;8.04;51.76;101804.16;5108021;28;20066;-65
2022/04/10 02:36:07;;;;;;;8.13;3.33;;;;;;;8.01;51.72;101805.38;5123383;28;20044;-65
2022/04/10 02:38:35;;;;;;;9.77;4.70;;;;;;;8.04;51.86;101812.19;5120586;28;20079;-64
2022/04/10 02:41:03;;;;;;;8.32;3.80;;;;;;;8.02;52.13;101807.03;5121704;28;20458;-65
2022/04/10 02:43:30;;;;;;;7.07;3.67;;;;;;;7.95;52.00;101800.72;5125131;27;20075;-66
2022/04/10 02:45:58;;;;;;;11.13;5.07;;;;;;;7.98;51.95;101802.22;5123034;28;20070;-65
2022/04/10 02:48:26;;;;;;;6.95;3.83;;;;;;;7.99;51.96;101803.88;5123917;28;20055;-65
2022/04/10 02:50:55;;;;;;;12.85;3.67;;;;;;;7.97;51.95;101805.91;5126819;28;20079;-65
2022/04/10 02:53:24;;;;;;;6.28;3.70;;;;;;;7.98;51.83;101812.94;5124978;27;20040;-66
2022/04/10 02:55:52;;;;;;;7.55;3.72;;;;;;;7.96;51.85;101820.31;5126495;28;20082;-65
2022/04/10 02:58:19;;;;;;;10.38;4.05;;;;;;;7.94;52.05;101812.47;5116813;28;20055;-65
2022/04/10 03:00:47;;;;;;;7.18;3.80;;;;;;;7.93;51.90;101818.81;5116777;28;20044;-65
2022/04/10 03:03:15;;;;;;;6.07;2.97;;;;;;;7.94;52.15;101825.00;5117270;28;20050;-65
2022/04/10 03:05:43;;;;;;;11.30;3.70;;;;;;;7.92;51.87;101830.53;5126691;28;20059;-65
2022/04/10 03:08:13;;;;;;;6.72;3.55;;;;;;;7.91;51.88;101830.72;5118413;28;20072;-65
2022/04/10 03:10:40;;;;;;;8.18;3.55;;;;;;;7.89;52.11;101830.91;5120353;27;20082;-65
2022/04/10 03:13:08;;;;;;;5.93;3.35;;;;;;;7.83;52.17;101821.75;5118906;28;20064;-65
2022/04/10 03:15:36;;;;;;;6.10;3.60;;;;;;;7.87;52.24;101827.56;5110593;28;20056;-66
2022/04/10 03:18:04;;;;;;;10.55;3.88;;;;;;;7.87;51.89;101834.75;5122591;28;20050;-65
2022/04/10 03:20:31;;;;;;;9.45;4.07;;;;;;;7.87;51.78;101826.75;5126210;27;20082;-65
2022/04/10 03:22:59;;;;;;;9.00;4.35;;;;;;;7.83;52.06;101832.44;5117900;28;20047;-65
2022/04/10 03:25:28;;;;;;;7.88;3.70;;;;;;;7.83;51.94;101832.44;5123642;28;20051;-65
2022/04/10 03:27:56;;;;;;;7.47;3.20;;;;;;;7.81;52.10;101837.16;5119188;28;20397;-65
2022/04/10 03:30:23;;;;;;;6.80;4.03;;;;;;;7.82;52.01;101832.63;5114304;28;20441;-65
2022/04/10 03:32:51;;;;;;;7.38;3.63;;;;;;;7.78;52.05;101829.47;5119566;28;20362;-65
2022/04/10 03:35:19;;;;;;;8.93;3.65;;;;;;;7.79;52.57;101847.19;5114137;28;20434;-66
2022/04/10 03:37:47;;;;;;;8.55;3.88;;;;;;;7.71;51.83;101839.22;5118736;28;20086;-66
2022/04/10 03:40:14;;;;;;;10.63;3.28;;;;;;;7.76;52.63;101847.56;5117926;28;20089;-65
2022/04/10 03:42:49;;;;;;;7.90;3.70;;;;;;;7.75;51.96;101839.72;5128930;27;20070;-65
2022/04/10 03:45:17;;;;;;;6.90;3.75;;;;;;;7.73;51.99;101849.75;5125999;28;20158;-65
2022/04/10 03:47:47;;;;;;;7.30;3.20;;;;;;;7.72;52.52;101842.75;5116545;28;20082;-65
2022/04/10 03:50:20;;;;;;;7.03;3.83;;;;;;;7.70;52.44;101850.94;5116070;28;20059;-65
2022/04/10 03:52:47;;;;;;;7.22;3.67;;;;;;;7.71;52.49;101857.13;5124014;28;20044;-65
2022/04/10 03:55:15;;;;;;;7.57;3.78;;;;;;;7.71;52.20;101859.81;5124726;28;20046;-65
2022/04/10 03:57:43;;;;;;;6.88;3.83;;;;;;;7.67;52.11;101853.16;5111443;28;20050;-65
2022/04/10 04:00:13;;;;;;;8.63;3.80;;;;;;;7.67;51.62;101859.31;5117135;28;20071;-65
2022/04/10 04:02:42;;;;;;;10.45;3.47;;;;;;;7.67;51.70;101863.84;5120467;27;20062;-65
2022/04/10 04:05:10;;;;;;;6.45;3.30;;;;;;;7.66;51.90;101862.19;5118694;28;20052;-65
2022/04/10 04:07:38;;;;;;;5.97;3.55;;;;;;;7.64;51.41;101858.84;5115392;28;20454;-66
2022/04/10 04:10:07;;;;;;;7.65;3.70;;;;;;;7.64;52.18;101859.69;5117262;28;20048;-66
2022/04/10 04:12:36;;;;;;;6.95;3.40;;;;;;;7.64;52.00;101869.56;5120190;28;20071;-64
2022/04/10 04:15:04;;;;;;;9.45;4.25;;;;;;;7.51;51.79;101840.72;5117438;27;20083;-65
2022/04/10 04:17:33;;;;;;;6.93;3.92;;;;;;;7.64;52.12;101861.53;5125112;27;20059;-65
2022/04/10 04:20:03;;;;;;;7.32;3.88;;;;;;;7.62;51.70;101859.03;5122708;28;20052;-65
2022/04/10 04:22:31;;;;;;;9.55;3.58;;;;;;;7.62;51.71;101863.56;5120028;28;20085;-65
2022/04/10 04:24:58;;;;;;;7.07;3.65;;;;;;;7.63;51.96;101862.53;5128170;27;20039;-65
2022/04/10 04:27:26;;;;;;;7.32;3.83;;;;;;;7.63;52.13;101862.53;5112338;27;20083;-65
2022/04/10 04:29:54;;;;;;;5.57;3.60;;;;;;;7.60;52.17;101857.53;5125031;28;20043;-65
2022/04/10 04:32:22;;;;;;;6.22;3.45;;;;;;;7.61;51.80;101861.88;5124692;28;20089;-64
2022/04/10 04:34:51;;;;;;;8.07;4.18;;;;;;;7.61;51.96;101864.56;5119500;28;20103;-65
2022/04/10 04:37:19;;;;;;;6.55;3.42;;;;;;;7.60;51.80;101869.06;5124501;28;20126;-65
2022/04/10 04:39:46;;;;;;;6.93;3.20;;;;;;;7.59;52.38;101880.78;5115265;28;20114;-65
2022/04/10 04:42:14;;;;;;;10.13;3.72;;;;;;;7.61;52.25;101875.25;5120480;28;20071;-65
2022/04/10 04:44:42;;;;;;;6.68;4.03;;;;;;;7.59;51.88;101867.41;5109101;28;20094;-65
2022/04/10 04:47:10;;;;;;;9.98;4.22;;;;;;;7.58;52.19;101876.44;5120244;28;20052;-64
2022/04/10 04:49:37;;;;;;;8.75;3.85;;;;;;;7.58;51.77;101876.44;5121226;28;20079;-64
2022/04/10 04:52:07;;;;;;;6.63;3.70;;;;;;;7.51;52.63;101870.97;5111140;28;20544;-64
2022/04/10 04:54:35;;;;;;;6.88;3.92;;;;;;;7.56;52.04;101877.63;5111768;28;20465;-65
2022/04/10 04:57:03;;;;;;;9.48;3.72;;;;;;;7.55;52.19;101884.81;5118449;28;20083;-64
2022/04/10 04:59:31;;;;;;;13.65;4.45;;;;;;;7.51;52.22;101883.50;5110001;28;20240;-65
2022/04/10 05:01:58;;;;;;;6.97;3.60;;;;;;;7.53;52.35;101880.66;5107997;28;20075;-64
2022/04/10 05:04:26;;;;;;;5.72;4.00;;;;;;;7.60;51.73;101885.13;5116133;28;20055;-64
2022/04/10 05:06:54;;;;;;;10.30;4.13;;;;;;;7.71;52.08;101890.06;5115455;28;20055;-65
2022/04/10 05:09:23;;;;;;;9.45;3.20;;;;;;;7.84;51.72;101890.31;5118095;28;20106;-64
2022/04/10 05:11:51;;;;;;;9.25;3.47;;;;;;;7.98;51.10;101891.38;5108382;28;20130;-65
2022/04/10 05:14:18;;;;;;;13.27;4.05;;;;;;;8.11;50.62;101890.78;5111183;28;20067;-65
2022/04/10 05:16:46;;;;;;;8.57;3.75;;;;;;;8.25;50.16;101891.84;5108948;28;20058;-65
2022/04/10 05:19:14;;;;;;;5.78;3.25;;;;;;;8.40;49.89;101906.97;5108924;28;20115;-65
2022/04/10 05:21:42;;;;;;;8.32;3.78;;;;;;;8.49;49.06;101897.00;5116528;28;20108;-65
2022/04/10 05:24:10;;;;;;;9.85;3.38;;;;;;;8.54;49.17;101902.66;5119259;28;20044;-66
2022/04/10 05:26:39;;;;;;;5.97;3.15;;;;;;;8.48;49.47;101896.16;5114452;28;20082;-65
2022/04/10 05:29:08;;;;;;;6.15;3.53;;;;;;;8.40;50.14;101911.47;5117215;28;20071;-65
2022/04/10 05:31:35;;;;;;;10.65;3.60;;;;;;;8.25;49.84;101900.72;5119150;28;20072;-65
2022/04/10 05:34:03;;;;;;;7.30;3.60;;;;;;;8.15;50.50;101910.84;5102854;28;20048;-66
2022/04/10 05:36:31;;;;;;;6.88;3.75;;;;;;;7.94;51.23;101890.06;4752681;28;10000243;-66
2022/04/10 05:38:59;;;;;;;8.20;3.80;;;;;;;8.00;50.69;101918.81;5102457;28;20115;-67
2022/04/10 05:41:26;;;;;;;9.95;4.13;;;;;;;7.95;50.60;101923.88;5107939;28;20119;-65
2022/04/10 05:43:55;;;;;;;6.40;3.60;;;;;;;7.89;51.33;101927.25;5107147;28;20070;-65
2022/04/10 05:46:25;;;;;;;8.65;4.35;;;;;;;7.84;51.58;101930.47;5103253;28;20127;-66
2022/04/10 05:48:53;;;;;;;5.57;3.70;;;;;;;7.82;51.51;101928.97;5107333;28;20052;-65
2022/04/10 05:51:21;;;;;;;11.15;3.72;;;;;;;7.77;51.79;101936.69;5103096;28;20079;-65
2022/04/10 05:53:49;;;;;;;7.22;3.97;;;;;;;7.73;52.13;101938.06;5105996;28;20097;-65
2022/04/10 05:56:16;;;;;;;7.85;3.47;;;;;;;7.70;52.02;101939.25;5106763;28;20079;-64
2022/04/10 05:58:44;;;;;;;6.28;3.47;;;;;;;7.67;52.23;101941.44;5117367;28;20051;-65
2022/04/10 06:01:13;;;;;;;7.53;3.83;;;;;;;7.64;52.15;101947.13;5105523;28;20074;-67
2022/04/10 06:03:41;;;;;;;8.15;4.15;;;;;;;7.55;51.90;101937.50;5112670;28;20044;-63
2022/04/10 06:06:09;;;;;;;8.75;3.90;;;;;;;7.64;52.68;101966.69;5115622;28;20155;-63
2022/04/10 06:08:37;;;;;;;7.55;3.78;;;;;;;7.64;52.11;101961.34;5107820;28;20055;-63
2022/04/10 06:11:05;;;;;;;9.23;3.80;;;;;;;7.66;52.74;101967.38;5110020;28;20048;-63
2022/04/10 06:13:33;;;;;;;6.97;4.25;;;;;;;7.61;53.50;101969.72;5111909;28;20118;-62
2022/04/10 06:16:01;;;;;;;9.65;4.20;;;;;;;7.66;53.54;101971.88;5109403;28;20509;-62
2022/04/10 06:18:30;;;;;;;8.25;4.13;;;;;;;7.68;52.99;101957.31;5106257;28;20060;-62
2022/04/10 06:20:58;;;;;;;7.90;4.18;;;;;;;7.75;53.17;101976.19;5109481;28;20040;-61
2022/04/10 06:23:26;;;;;;;12.23;4.13;;;;;;;7.79;53.41;101983.69;5104496;28;20079;-61
2022/04/10 06:25:54;;;;;;;8.77;4.00;;;;;;;7.82;53.05;101977.13;5118042;28;20158;-62
2022/04/10 06:28:21;;;;;;;10.73;4.03;;;;;;;7.85;53.22;101987.50;5115569;28;20071;-60
2022/04/10 06:30:49;;;;;;;8.60;3.92;;;;;;;7.89;52.98;101990.66;5118402;27;20074;-62
2022/04/10 06:33:17;;;;;;;11.18;4.43;;;;;;;7.93;53.26;101990.13;5119180;28;20071;-62
2022/04/10 06:35:46;;;;;;;6.80;3.90;;;;;;;7.97;53.50;101996.78;5113167;28;20074;-60
2022/04/10 06:38:14;;;;;;;11.85;3.95;;;;;;;8.00;53.07;101998.28;5108065;28;20079;-61
2022/04/10 06:40:41;;;;;;;7.00;3.85;;;;;;;7.99;53.29;101996.63;5117461;28;20063;-61
2022/04/10 06:43:09;;;;;;;12.23;4.90;;;;;;;7.99;52.99;101996.63;5112294;28;20104;-61
2022/04/10 06:45:37;;;;;;;10.38;3.70;;;;;;;8.02;53.26;102006.97;5123583;28;20083;-61
2022/04/10 06:48:06;;;;;;;14.95;4.60;;;;;;;8.02;53.51;101999.78;5119435;27;20119;-61
2022/04/10 06:50:34;;;;;;;8.63;4.13;;;;;;;8.06;53.64;102000.25;5111354;28;20052;-61
2022/04/10 06:53:03;;;;;;;9.38;4.72;;;;;;;8.08;53.79;102000.91;5114444;28;20109;-60
2022/04/10 06:55:31;;;;;;;7.72;3.83;;;;;;;8.11;53.27;102001.38;5116165;28;20047;-60
2022/04/10 06:58:02;;;;;;;6.45;3.22;;;;;;;8.13;53.84;102007.41;4758724;28;9999899;-61
2022/04/10 07:00:30;;;;;;;8.18;4.82;;;;;;;8.14;53.36;101997.53;5119713;27;20086;-60
2022/04/10 07:03:01;;;;;;;8.57;4.25;;;;;;;8.20;53.59;102006.69;5118365;28;20088;-61
2022/04/10 07:05:29;;;;;;;7.18;4.05;;;;;;;8.27;52.92;102018.34;5113937;27;20044;-61
2022/04/10 07:07:56;;;;;;;7.75;4.20;;;;;;;8.29;52.99;102011.81;5116260;28;20043;-60
2022/04/10 07:10:26;;;;;;;7.63;4.20;;;;;;;8.33;53.31;102017.69;5126872;27;20116;-61
2022/04/10 07:12:53;;;;;;;11.00;3.75;;;;;;;8.33;53.88;102018.50;5124327;27;20432;-64
2022/04/10 07:15:21;;;;;;;10.27;4.40;;;;;;;8.25;53.78;102005.16;5122184;28;20043;-65
2022/04/10 07:17:56;;;;;;;6.53;4.35;;;;;;;8.35;53.63;102019.16;5119506;28;20065;-62
2022/04/10 07:20:24;;;;;;;7.60;3.80;;;;;;;8.37;53.53;102022.50;5106193;28;20079;-61
2022/04/10 07:25:39;;;;;;;13.65;3.47;;;;;;;8.38;53.06;102026.84;5113293;28;20078;-64
2022/04/10 07:28:06;;;;;;;9.50;3.67;;;;;;;8.39;53.90;102035.72;5116218;27;20070;-62
2022/04/10 07:30:34;;;;;;;8.80;4.07;;;;;;;8.43;53.86;102032.50;5110393;27;20193;-62
2022/04/10 07:33:02;;;;;;;8.45;3.42;;;;;;;8.36;53.06;102023.50;5118315;28;20083;-61
2022/04/10 07:35:36;;;;;;;7.63;4.13;;;;;;;8.43;53.90;102027.16;5108701;28;20157;-61
2022/04/10 07:38:04;;;;;;;10.07;4.45;;;;;;;8.45;54.13;102032.31;5119573;28;20091;-62
2022/04/10 07:40:32;;;;;;;8.70;4.00;;;;;;;8.47;53.77;102038.34;5114188;28;20155;-61
2022/04/10 07:43:01;;;;;;;6.90;3.47;;;;;;;8.47;53.76;102044.53;5120938;28;20349;-61
2022/04/10 07:48:14;;;;;;;8.93;4.43;;;;;;;8.55;53.91;102046.31;5121669;28;20055;-63
2022/04/10 07:50:42;;;;;;;8.30;4.43;;;;;;;8.48;54.20;102046.19;5116485;28;20075;-60
2022/04/10 07:53:10;;;;;;;11.50;3.90;;;;;;;8.45;55.36;102049.22;5111759;28;20079;-61
2022/04/10 07:55:38;;;;;;;6.70;3.78;;;;;;;8.43;55.10;102051.25;5107059;28;20126;-66
2022/04/10 07:58:07;;;;;;;12.60;4.25;;;;;;;8.44;54.95;102058.28;5119897;28;20062;-61
2022/04/10 08:00:34;;;;;;;10.10;3.83;;;;;;;8.44;54.55;102060.13;5115527;28;20051;-62
2022/04/10 08:03:03;;;;;;;7.68;4.25;;;;;;;8.46;54.59;102060.78;5108408;28;20090;-62
2022/04/10 08:05:31;;;;;;;10.65;3.22;;;;;;;8.46;54.81;102069.66;5115817;28;20393;-62
2022/04/10 08:07:58;;;;;;;7.53;3.13;;;;;;;8.44;54.73;102069.00;5108891;28;20052;-61
2022/04/10 08:10:26;;;;;;;6.35;3.85;;;;;;;8.41;54.57;102069.34;5118336;28;20044;-61
2022/04/10 08:12:54;;;;;;;6.32;3.10;;;;;;;8.41;54.54;102069.34;5120123;28;20111;-62
2022/04/10 08:15:23;;;;;;;7.00;2.97;;;;;;;8.38;54.66;102074.22;5114272;27;20131;-62
2022/04/10 08:17:51;;;;;;;7.90;3.35;;;;;;;8.37;54.91;102080.59;5116891;28;20062;-60
2022/04/10 08:20:18;;;;;;;14.55;4.43;;;;;;;8.38;54.59;102080.41;5114261;28;20075;-62
2022/04/10 08:22:49;;;;;;;6.43;2.80;;;;;;;8.37;54.86;102081.44;5117657;28;20057;-61
2022/04/10 08:25:17;;;;;;;9.88;3.08;;;;;;;8.38;54.86;102090.31;5122614;28;20067;-62
2022/04/10 08:27:45;;;;;;;8.23;3.63;;;;;;;8.39;54.85;102078.56;5119133;28;20082;-68
2022/04/10 08:30:13;;;;;;;5.63;2.80;;;;;;;8.41;54.95;102084.59;5119639;28;20044;-63
2022/04/10 08:32:44;;;;;;;7.30;3.00;;;;;;;8.44;55.09;102076.19;5113923;28;20067;-63
2022/04/10 08:35:12;;;;;;;8.80;2.58;;;;;;;8.39;54.25;102066.00;5107197;28;20075;-61
2022/04/10 08:37:42;;;;;;;7.55;2.90;;;;;;;8.50;54.46;102070.13;5108305;28;20047;-62
2022/04/10 08:40:11;;;;;;;14.43;2.67;;;;;;;8.57;53.84;102087.16;5112110;28;20075;-62
2022/04/10 08:42:39;;;;;;;10.48;3.15;;;;;;;8.59;54.09;102095.03;5123291;28;20070;-62
2022/04/10 08:45:09;;;;;;;7.45;2.65;;;;;;;8.55;53.27;102094.53;5124625;28;20071;-62
2022/04/10 08:47:38;;;;;;;8.60;2.50;;;;;;;8.51;53.82;102092.41;5116891;28;20496;-61
2022/04/10 08:50:10;;;;;;;5.60;2.15;;;;;;;8.45;53.03;102097.44;5117952;28;20079;-61
2022/04/10 08:52:38;;;;;;;6.43;2.05;;;;;;;8.43;52.50;102087.94;5113128;28;20075;-62
2022/04/10 08:55:07;;;;;;;9.75;2.60;;;;;;;8.41;53.04;102096.13;5114691;28;20055;-62
2022/04/10 08:57:34;;;;;;;5.97;2.15;;;;;;;8.44;51.77;102098.47;5113077;28;20048;-63
2022/04/10 09:00:02;;;;;;;5.47;2.10;;;;;;;8.43;52.69;102099.47;5120476;28;20115;-62
2022/04/10 09:02:30;;;;;;;8.57;2.03;;;;;;;8.44;52.19;102094.94;5115305;27;20048;-61
2022/04/10 09:04:58;;;;;;;4.13;1.80;;;;;;;8.50;52.40;102094.25;5112316;28;20109;-62
2022/04/10 09:07:27;;;;;;;8.75;2.60;;;;;;;8.53;52.18;102096.56;5114895;28;20071;-62
2022/04/10 09:09:56;;;;;;;7.93;2.17;;;;;;;8.58;52.36;102098.72;5113072;28;20043;-63
2022/04/10 09:12:25;;;;;;;9.55;2.20;;;;;;;8.58;51.89;102098.72;5125243;27;20059;-63
2022/04/10 09:15:03;;;;;;;8.40;2.00;;;;;;;8.57;51.45;102105.91;5115718;28;20058;-63
2022/04/10 09:17:31;;;;;;;10.35;1.75;;;;;;;8.54;50.55;102106.28;5111226;28;20058;-63
2022/04/10 09:20:00;;;;;;;5.65;1.98;;;;;;;8.56;50.46;102106.09;5117327;28;20035;-62
2022/04/10 09:22:30;;;;;;;7.65;2.05;;;;;;;8.57;49.94;102107.75;5110901;28;20047;-63
2022/04/10 09:25:07;;;;;;;3.35;1.63;;;;;;;8.54;50.67;102095.56;5115182;28;20084;-63
2022/04/10 09:27:36;;;;;;;6.25;2.15;;;;;;;8.55;51.03;102102.59;5116467;28;20438;-63
2022/04/10 09:30:05;;;;;;;15.27;2.50;;;;;;;8.52;50.64;102091.38;5113004;27;20067;-63
2022/04/10 09:32:42;;;;;;;6.38;2.10;;;;;;;8.55;50.97;102093.72;5104952;28;20048;-63
2022/04/10 09:35:11;;;;;;;5.18;1.65;;;;;;;8.58;50.92;102104.91;5119303;28;20050;-62
2022/04/10 09:38:00;;;;;;;8.80;1.83;;;;;;;8.59;51.76;102106.56;5108636;28;20055;-62
2022/04/10 09:40:30;;;;;;;10.48;1.63;;;;;;;8.63;51.99;102099.84;5100338;28;20489;-64
2022/04/10 09:43:03;;;;;;;11.57;2.17;;;;;;;8.68;51.47;102096.59;5116373;28;20054;-64
2022/04/10 09:45:38;;;;;;;8.10;1.63;;;;;;;8.64;51.70;102088.13;5117321;28;20036;-63
2022/04/10 09:48:19;;;;;;;7.75;2.00;;;;;;;8.76;51.94;102101.91;5137865;28;20055;-63
2022/04/10 09:50:48;;;;;;;8.27;1.88;;;;;;;8.76;51.95;102102.72;5115535;28;20047;-63
2022/04/10 09:53:17;;;;;;;12.50;2.13;;;;;;;8.76;52.37;102100.06;5119741;28;20086;-63
2022/04/10 09:55:45;;;;;;;5.88;2.10;;;;;;;8.81;52.35;102096.84;5118010;28;20078;-63
2022/04/10 09:58:13;;;;;;;8.02;2.20;;;;;;;8.85;52.88;102102.69;5113682;28;20090;-63
2022/04/10 10:00:44;;;;;;;6.30;1.80;;;;;;;8.86;51.81;102099.81;5120006;28;20051;-64
2022/04/10 10:03:12;;;;;;;8.27;1.70;;;;;;;8.87;52.38;102098.81;5114252;28;20130;-63
2022/04/10 10:05:39;;;;;;;7.45;2.67;;;;;;;8.87;52.35;102101.47;5109358;28;20107;-63
2022/04/10 10:08:09;;;;;;;7.15;1.85;;;;;;;8.86;52.25;102093.63;5116620;28;20074;-62
2022/04/10 10:10:39;;;;;;;8.85;2.08;;;;;;;8.93;52.46;102095.41;5120960;28;20188;-62
2022/04/10 10:13:08;;;;;;;10.65;2.83;;;;;;;8.95;51.15;102097.91;5121390;28;20075;-62
2022/04/10 10:15:39;;;;;;;7.00;1.92;;;;;;;8.94;50.76;102097.06;5110880;28;20043;-64
2022/04/10 10:18:08;;;;;;;12.23;2.45;;;;;;;8.98;50.72;102103.72;5123386;28;20058;-64
2022/04/10 10:20:38;;;;;;;6.22;2.50;;;;;;;8.98;50.67;102094.84;5122085;28;20118;-63
2022/04/10 10:23:09;;;;;;;6.95;2.53;;;;;;;9.00;50.41;102087.47;5117620;28;20469;-62
2022/04/10 10:25:48;;;;;;;2.92;1.52;;;;;;;9.01;50.90;102081.09;5121020;28;20052;-63
2022/04/10 10:28:31;;;;;;;3.65;1.75;;;;;;;9.09;51.61;102081.00;5102820;28;20079;-62
2022/04/10 10:31:23;;;;;;;6.00;2.45;;;;;;;9.15;50.50;102080.28;5124080;28;20351;-63
2022/04/10 10:33:55;;;;;;;5.00;1.85;;;;;;;9.19;49.60;102083.44;5107509;28;20219;-64
2022/04/10 10:36:26;;;;;;;6.28;2.00;;;;;;;9.22;49.58;102077.72;5117169;28;20138;-65
2022/04/10 10:38:55;;;;;;;5.97;1.67;;;;;;;9.25;48.48;102083.53;5114470;28;20083;-64
2022/04/10 10:41:35;;;;;;;3.45;1.30;;;;;;;9.24;48.40;102062.25;5112188;28;20075;-65
2022/04/10 10:44:31;;;;;;;5.80;1.60;;;;;;;9.23;48.70;102076.69;5121411;28;20047;-65
2022/04/10 10:47:02;;;;;;;7.97;2.20;;;;;;;9.26;48.30;102082.53;5116868;28;20079;-65
2022/04/10 10:49:31;;;;;;;6.22;1.52;;;;;;;9.30;48.67;102078.47;5116715;28;20051;-64
2022/04/10 10:52:08;;;;;;;2.85;1.55;;;;;;;9.34;48.50;102078.94;5112810;27;20762;-64
2022/04/10 10:54:42;;;;;;;9.70;1.40;;;;;;;9.39;48.86;102084.56;5114947;28;20074;-63
2022/04/10 10:57:25;;;;;;;9.20;1.73;;;;;;;9.44;48.56;102079.50;5109816;28;20083;-62
2022/04/10 10:59:53;;;;;;;7.82;1.80;;;;;;;9.48;49.29;102085.31;5121336;28;20163;-62
2022/04/10 11:02:21;;;;;;;7.53;1.85;;;;;;;9.51;48.53;102079.59;5108617;27;20135;-61
2022/04/10 11:05:26;;;;;;;4.63;1.60;;;;;;;9.53;48.21;102078.38;5116300;28;20063;-61
2022/04/10 11:07:57;;;;;;;7.25;2.00;;;;;;;9.55;48.09;102075.53;5119674;28;20071;-61
2022/04/10 11:10:28;;;;;;;10.73;1.73;;;;;;;9.58;49.93;102069.78;5119160;28;20419;-61
2022/04/10 11:13:04;;;;;;;7.10;1.85;;;;;;;9.66;49.57;102070.53;5113816;28;20046;-62
2022/04/10 11:15:34;;;;;;;12.43;1.63;;;;;;;9.71;48.22;102067.28;5115512;28;20039;-60
2022/04/10 11:18:29;;;;;;;10.20;2.20;;;;;;;9.81;47.54;102075.03;5118842;28;20067;-61
2022/04/10 11:20:58;;;;;;;7.47;1.65;;;;;;;9.83;48.80;102065.78;5114680;28;20039;-61
2022/04/10 11:23:31;;;;;;;9.20;2.67;;;;;;;9.85;47.76;102069.13;5113613;28;20177;-61
2022/04/10 11:26:05;;;;;;;5.97;2.15;;;;;;;9.86;47.74;102068.09;5121240;28;20048;-61
2022/04/10 11:28:54;;;;;;;9.70;2.20;;;;;;;9.85;47.99;102055.69;5120829;28;20044;-62
2022/04/10 11:31:33;;;;;;;9.63;2.45;;;;;;;9.88;47.47;102055.31;5111501;28;20058;-61
2022/04/10 11:34:12;;;;;;;4.18;1.63;;;;;;;9.95;47.79;102063.47;5116145;27;20419;-62
2022/04/10 11:36:54;;;;;;;5.85;1.65;;;;;;;9.98;47.44;102068.44;5117984;28;20124;-62
2022/04/10 11:39:26;;;;;;;7.68;1.63;;;;;;;10.01;46.39;102062.69;5111904;28;20048;-62
2022/04/10 11:41:54;;;;;;;6.85;1.75;;;;;;;10.00;47.11;102056.50;5104697;28;20521;-63
2022/04/10 11:44:25;;;;;;;5.80;1.70;;;;;;;10.04;46.60;102062.31;5115737;28;20047;-61
2022/04/10 11:46:52;;;;;;;6.45;1.85;;;;;;;10.06;47.18;102057.59;5123916;28;20078;-62
2022/04/10 11:49:20;;;;;;;3.13;1.50;;;;;;;10.00;47.39;102056.50;5125542;28;20138;-62